Crawford, Tennessee
Current Conditions -  °F | °C
As of 11:53 AM on Friday 19 Dec 2014 (Local Time) from KCSV Reporting Station
Clear Clear  
Wind Chill: 33°   Ceiling: Unl
Heat Index: 38°   Visibility: 10mi
Dew Point: 24°   Wind: 6mph
Humidity: 57%   Direction: 30°NNE
Pressure: 30.18"   Gusts: NA
Location:  36.27°N, 85.16°W
Report Text: KCSV 191753Z AUTO 03005KT 10SM CLR 03/M04 A3018 RMK AO2 SLP231 I6001 T00331044 10033 21022 58010
Loading
Personal Weather Stations






























Interactive Weather Map New forecast layout! Learn more

10-Day Weather Forecast

Advertisements
Track Severe Weather on mobile